createdAt,value
2023-02-24T00:02:14.828Z,57.13
2023-02-24T00:04:42.242Z,59.43
2023-02-24T00:07:10.747Z,50.77
2023-02-24T00:09:39.021Z,60.33
2023-02-24T00:12:09.345Z,61.40
2023-02-24T00:14:38.071Z,62.50
2023-02-24T00:17:11.365Z,58.53
2023-02-24T00:19:39.098Z,56.50
2023-02-24T00:22:07.835Z,60.43
2023-02-24T00:24:35.922Z,62.77
2023-02-24T00:27:06.201Z,52.60
2023-02-24T00:29:33.934Z,59.93
2023-02-24T00:32:07.069Z,56.87
2023-02-24T00:34:36.166Z,63.40
2023-02-24T00:37:05.618Z,54.90
2023-02-24T00:39:34.614Z,63.20
2023-02-24T00:42:06.586Z,63.43
2023-02-24T00:44:38.321Z,63.90
2023-02-24T00:47:09.118Z,69.77
2023-02-24T00:49:38.731Z,61.20
2023-02-24T00:52:09.278Z,61.40
2023-02-24T00:54:37.050Z,65.10
2023-02-24T00:57:04.379Z,69.53
2023-02-24T00:59:31.736Z,69.60
2023-02-24T01:01:59.297Z,63.40
2023-02-24T01:04:28.434Z,62.90
2023-02-24T01:06:58.084Z,70.27
2023-02-24T01:09:27.032Z,69.90
2023-02-24T01:12:12.856Z,61.57
2023-02-24T01:14:40.415Z,66.97
2023-02-24T01:17:09.473Z,58.70
2023-02-24T01:19:37.226Z,62.27
2023-02-24T01:22:05.826Z,58.47
2023-02-24T01:24:35.038Z,62.90
2023-02-24T01:27:02.745Z,61.53
2023-02-24T01:29:30.023Z,67.30
2023-02-24T01:31:58.699Z,65.30
2023-02-24T01:34:27.222Z,61.03
2023-02-24T01:36:54.966Z,50.83
2023-02-24T01:39:22.514Z,67.70
2023-02-24T01:41:52.780Z,56.83
2023-02-24T01:44:23.243Z,57.40
2023-02-24T01:46:52.684Z,58.07
2023-02-24T01:49:29.243Z,59.40
2023-02-24T01:51:58.463Z,60.57
2023-02-24T01:54:27.406Z,63.37
2023-02-24T01:56:57.027Z,67.10
2023-02-24T01:59:25.441Z,82.17
2023-02-24T02:01:55.135Z,80.80
2023-02-24T02:04:30.117Z,84.07
2023-02-24T02:06:57.528Z,77.63
2023-02-24T02:09:26.117Z,71.97
2023-02-24T02:11:53.462Z,72.77
2023-02-24T02:14:22.371Z,67.23
2023-02-24T02:17:00.115Z,76.90
2023-02-24T02:19:45.480Z,65.80
2023-02-24T02:22:17.478Z,65.67
2023-02-24T02:24:46.338Z,61.73
2023-02-24T02:27:33.196Z,64.87
2023-02-24T02:30:17.365Z,62.00
2023-02-24T02:33:04.739Z,63.03
2023-02-24T02:35:40.179Z,53.63
2023-02-24T02:38:12.867Z,54.00
2023-02-24T02:40:41.820Z,57.43
2023-02-24T02:43:10.718Z,50.10
2023-02-24T02:45:40.010Z,59.80
2023-02-24T02:48:11.757Z,51.97
2023-02-24T02:50:44.930Z,53.57
2023-02-24T02:53:17.290Z,55.57
2023-02-24T02:55:46.145Z,53.30
2023-02-24T02:58:17.657Z,54.53
2023-02-24T03:00:48.207Z,52.07
2023-02-24T03:03:17.465Z,51.57
2023-02-24T03:05:48.975Z,59.97
2023-02-24T03:08:18.374Z,55.73
2023-02-24T03:10:48.603Z,53.50
2023-02-24T03:13:16.229Z,50.33
2023-02-24T03:15:45.584Z,55.07
2023-02-24T03:18:14.772Z,55.07
2023-02-24T03:20:43.802Z,58.30
2023-02-24T03:23:17.224Z,50.57
2023-02-24T03:25:54.911Z,56.37
2023-02-24T03:28:34.533Z,54.27
2023-02-24T03:31:05.189Z,50.93
2023-02-24T03:33:44.543Z,55.87
2023-02-24T03:36:13.785Z,53.67
2023-02-24T03:38:42.576Z,54.83
2023-02-24T03:41:13.245Z,57.40
2023-02-24T03:43:42.287Z,52.77
2023-02-24T03:46:09.730Z,55.30
2023-02-24T03:48:38.607Z,58.53
2023-02-24T03:51:08.602Z,59.00
2023-02-24T03:53:43.125Z,56.17
2023-02-24T03:56:22.227Z,57.07
2023-02-24T03:59:04.104Z,54.23
2023-02-24T04:01:35.998Z,51.23
2023-02-24T04:04:07.684Z,54.13
2023-02-24T04:06:36.581Z,48.47
2023-02-24T04:09:08.790Z,59.43
2023-02-24T04:11:37.661Z,55.23
2023-02-24T04:14:06.652Z,53.23
2023-02-24T04:16:36.301Z,53.83
2023-02-24T04:19:05.259Z,55.30
2023-02-24T04:21:32.843Z,55.00
2023-02-24T04:24:05.192Z,59.40
2023-02-24T04:26:34.453Z,53.73
2023-02-24T04:29:02.863Z,60.87
2023-02-24T04:31:31.546Z,58.43
2023-02-24T04:34:00.111Z,54.00
2023-02-24T04:36:27.443Z,57.27
2023-02-24T04:38:55.496Z,62.03
2023-02-24T04:41:23.293Z,55.50
2023-02-24T04:43:51.135Z,64.17
2023-02-24T04:46:19.499Z,59.70
2023-02-24T04:48:46.812Z,56.73
2023-02-24T04:51:14.232Z,58.13
2023-02-24T04:53:41.979Z,63.63
2023-02-24T04:56:09.459Z,62.50
2023-02-24T04:58:38.263Z,58.37
2023-02-24T05:01:11.363Z,56.43
2023-02-24T05:03:41.023Z,57.63
2023-02-24T05:06:09.878Z,63.13
2023-02-24T05:08:38.396Z,59.07
2023-02-24T05:11:06.745Z,60.63
2023-02-24T05:13:34.379Z,60.70
2023-02-24T05:16:09.090Z,60.87
2023-02-24T05:18:38.089Z,55.50
2023-02-24T05:21:25.023Z,58.03
2023-02-24T05:23:53.424Z,56.13
2023-02-24T05:26:21.729Z,60.73
2023-02-24T05:28:52.505Z,57.33
2023-02-24T05:31:26.164Z,63.40
2023-02-24T05:33:55.101Z,60.07
2023-02-24T05:36:22.979Z,59.67
2023-02-24T05:38:55.535Z,63.80
2023-02-24T05:41:23.004Z,60.63
2023-02-24T05:43:54.809Z,58.50
2023-02-24T05:46:27.878Z,61.80
2023-02-24T05:48:59.161Z,63.57
2023-02-24T05:51:27.723Z,64.53
2023-02-24T05:53:55.444Z,62.77
2023-02-24T05:56:23.555Z,66.07
2023-02-24T05:58:54.739Z,63.43
2023-02-24T06:01:22.355Z,60.17
2023-02-24T06:03:49.950Z,64.67
2023-02-24T06:06:17.402Z,65.37
2023-02-24T06:08:50.820Z,63.77
2023-02-24T06:11:19.412Z,65.10
2023-02-24T06:13:50.296Z,67.33
2023-02-24T06:16:18.256Z,66.13
2023-02-24T06:18:47.118Z,66.63
2023-02-24T06:21:14.498Z,64.40
2023-02-24T06:23:41.840Z,61.27
2023-02-24T06:26:17.077Z,69.87
2023-02-24T06:28:44.422Z,65.83
2023-02-24T06:31:13.826Z,59.57
2023-02-24T06:33:42.106Z,69.50
2023-02-24T06:36:09.521Z,63.53
2023-02-24T06:38:37.630Z,57.13
2023-02-24T06:41:09.848Z,62.57
2023-02-24T06:43:44.332Z,64.60
2023-02-24T06:46:13.269Z,76.03
2023-02-24T06:48:41.548Z,63.97
2023-02-24T06:51:10.617Z,67.23
2023-02-24T06:53:39.863Z,59.67
2023-02-24T06:56:09.086Z,65.83
2023-02-24T06:58:39.002Z,70.90
2023-02-24T07:01:09.720Z,71.40
2023-02-24T07:03:40.164Z,61.67
2023-02-24T07:06:27.851Z,69.37
2023-02-24T07:08:55.690Z,66.47
2023-02-24T07:11:23.399Z,64.30
2023-02-24T07:13:52.605Z,69.33
2023-02-24T07:16:23.080Z,64.47
2023-02-24T07:18:51.960Z,74.97
2023-02-24T07:21:20.540Z,56.57
2023-02-24T07:23:49.577Z,58.57
2023-02-24T07:26:18.368Z,55.30
2023-02-24T07:28:48.040Z,66.50
2023-02-24T07:31:22.081Z,58.03
2023-02-24T07:33:51.108Z,64.40
2023-02-24T07:36:20.541Z,59.10
2023-02-24T07:38:47.890Z,53.07
2023-02-24T07:41:19.812Z,57.43
2023-02-24T07:43:48.692Z,55.47
2023-02-24T07:46:19.037Z,57.50
2023-02-24T07:48:50.389Z,54.90
2023-02-24T07:51:19.206Z,54.70
2023-02-24T07:53:53.874Z,49.80
2023-02-24T07:56:23.872Z,45.77
2023-02-24T07:58:51.594Z,50.23
2023-02-24T08:01:27.262Z,49.27
2023-02-24T08:04:00.415Z,50.97
2023-02-24T08:06:30.975Z,50.43
2023-02-24T08:08:58.315Z,49.20
2023-02-24T08:11:35.882Z,42.67
2023-02-24T08:14:04.003Z,41.50
2023-02-24T08:16:32.999Z,48.10
2023-02-24T08:19:07.672Z,49.00
2023-02-24T08:21:36.644Z,52.20
2023-02-24T08:24:05.397Z,42.70
2023-02-24T08:26:32.800Z,46.43
2023-02-24T08:29:00.106Z,41.50
2023-02-24T08:31:27.591Z,42.80
2023-02-24T08:33:56.293Z,44.57
2023-02-24T08:36:25.269Z,43.13
2023-02-24T08:38:53.297Z,43.40
2023-02-24T08:41:23.384Z,40.40
2023-02-24T08:43:50.924Z,42.80
2023-02-24T08:46:20.838Z,37.40
2023-02-24T08:48:53.990Z,39.00
2023-02-24T08:51:23.697Z,38.97
2023-02-24T08:53:55.253Z,47.70
2023-02-24T08:56:24.735Z,36.10
2023-02-24T08:58:55.337Z,38.30
2023-02-24T09:01:25.046Z,36.50
2023-02-24T09:03:56.903Z,41.20
2023-02-24T09:06:25.797Z,40.30
2023-02-24T09:08:59.325Z,44.27
2023-02-24T09:11:26.671Z,38.47
2023-02-24T09:13:55.663Z,38.30
2023-02-24T09:16:23.458Z,38.17
2023-02-24T09:19:09.592Z,41.83
2023-02-24T09:21:51.220Z,39.67
2023-02-24T09:24:25.924Z,38.67
2023-02-24T09:26:58.767Z,36.30
2023-02-24T09:29:37.526Z,35.07
2023-02-24T09:32:06.628Z,37.67
2023-02-24T09:34:35.553Z,39.17
2023-02-24T09:39:55.149Z,41.27
2023-02-24T09:42:25.688Z,34.90
2023-02-24T09:44:55.618Z,37.03
2023-02-24T09:47:45.266Z,36.67
2023-02-24T09:50:59.037Z,32.83
2023-02-24T09:53:17.803Z,31.40
2023-02-24T09:56:03.586Z,30.13
2023-02-24T09:58:43.998Z,32.27
2023-02-24T10:01:21.297Z,35.13
2023-02-24T10:03:51.664Z,32.40
2023-02-24T10:06:23.526Z,33.87
2023-02-24T10:08:58.358Z,33.10
2023-02-24T10:11:29.507Z,34.90
2023-02-24T10:14:03.448Z,33.57
2023-02-24T10:16:29.229Z,33.07
2023-02-24T10:19:07.545Z,34.53
2023-02-24T10:21:38.065Z,31.87
2023-02-24T10:24:11.838Z,32.80
2023-02-24T10:26:59.749Z,34.43
2023-02-24T10:29:21.769Z,29.83
2023-02-24T10:31:55.069Z,31.30
2023-02-24T10:34:24.247Z,31.63
2023-02-24T10:36:51.997Z,29.80
2023-02-24T10:39:26.896Z,26.83
2023-02-24T10:41:58.545Z,25.83
2023-02-24T10:44:27.458Z,26.20
2023-02-24T10:47:06.483Z,27.50
2023-02-24T10:49:36.955Z,25.87
2023-02-24T10:52:06.124Z,26.50
2023-02-24T10:54:35.220Z,26.33
2023-02-24T10:57:10.814Z,27.07
2023-02-24T10:59:50.212Z,25.83
2023-02-24T11:02:26.700Z,28.33
2023-02-24T11:04:56.217Z,27.70
2023-02-24T11:07:27.601Z,32.73
2023-02-24T11:10:10.443Z,28.47
2023-02-24T11:13:04.252Z,28.20
2023-02-24T11:15:45.741Z,30.50
2023-02-24T11:18:20.883Z,27.47
2023-02-24T11:20:50.193Z,26.50
2023-02-24T11:23:25.847Z,28.20
2023-02-24T11:25:54.544Z,26.07
2023-02-24T11:28:29.680Z,29.03
2023-02-24T11:33:49.364Z,27.57
2023-02-24T11:36:27.040Z,32.43
2023-02-24T11:39:08.343Z,27.87
2023-02-24T11:41:35.073Z,29.57
2023-02-24T11:44:03.957Z,26.93
2023-02-24T11:46:39.169Z,23.40
2023-02-24T11:49:08.441Z,26.40
2023-02-24T11:51:37.027Z,24.30
2023-02-24T11:54:11.496Z,25.20
2023-02-24T11:56:41.169Z,25.40
2023-02-24T11:59:10.938Z,24.70
2023-02-24T12:01:40.940Z,28.37
2023-02-24T12:04:15.768Z,25.47
2023-02-24T12:06:59.880Z,25.20
2023-02-24T12:09:29.129Z,23.07
2023-02-24T12:12:03.746Z,26.50
2023-02-24T12:14:35.625Z,25.00
2023-02-24T12:17:08.533Z,27.40
2023-02-24T12:19:43.382Z,25.90
2023-02-24T12:22:16.713Z,25.47
2023-02-24T12:24:47.210Z,25.30
2023-02-24T12:27:25.311Z,30.23
2023-02-24T12:32:53.595Z,25.90
2023-02-24T12:35:39.324Z,23.73
2023-02-24T12:38:20.411Z,27.17
2023-02-24T12:40:52.992Z,24.83
2023-02-24T12:43:34.170Z,26.83
2023-02-24T12:46:10.026Z,24.60
2023-02-24T12:48:45.257Z,21.90
2023-02-24T12:51:20.875Z,23.37
2023-02-24T12:53:52.898Z,29.47
2023-02-24T12:56:27.690Z,25.30
2023-02-24T12:58:56.746Z,25.23
2023-02-24T13:01:25.865Z,24.70
2023-02-24T13:04:03.987Z,22.33
2023-02-24T13:06:49.146Z,21.30
2023-02-24T13:09:23.825Z,26.40
2023-02-24T13:12:08.032Z,24.20
2023-02-24T13:14:36.374Z,26.80
2023-02-24T13:17:14.998Z,24.83
2023-02-24T13:19:43.231Z,22.93
2023-02-24T13:22:16.815Z,24.60
2023-02-24T13:24:45.723Z,25.60
2023-02-24T13:27:26.524Z,20.17
2023-02-24T13:29:58.422Z,20.90
2023-02-24T13:32:36.172Z,23.00
2023-02-24T13:35:06.040Z,20.03
2023-02-24T13:37:34.947Z,21.93
2023-02-24T13:40:05.522Z,20.57
2023-02-24T13:42:32.900Z,18.20
2023-02-24T13:45:01.898Z,19.50
2023-02-24T13:47:30.770Z,24.23
2023-02-24T13:50:12.093Z,19.50
2023-02-24T13:52:41.191Z,20.10
2023-02-24T13:55:10.846Z,18.83
2023-02-24T13:57:39.728Z,25.97
2023-02-24T14:00:14.755Z,25.50
2023-02-24T14:02:43.965Z,17.13
2023-02-24T14:05:19.170Z,22.30
2023-02-24T14:07:48.277Z,21.23
2023-02-24T14:10:18.861Z,19.87
2023-02-24T14:12:47.000Z,19.17
2023-02-24T14:15:15.938Z,20.00
2023-02-24T14:17:43.227Z,17.97
2023-02-24T14:20:13.771Z,21.93
2023-02-24T14:22:45.323Z,17.67
2023-02-24T14:25:13.767Z,19.60
2023-02-24T14:27:43.097Z,21.20
2023-02-24T14:30:12.034Z,17.13
2023-02-24T14:32:40.245Z,20.87
2023-02-24T14:35:09.166Z,16.50
2023-02-24T14:37:36.804Z,18.03
2023-02-24T14:40:09.552Z,15.60
2023-02-24T14:42:38.432Z,18.57
2023-02-24T14:45:07.597Z,19.13
2023-02-24T14:47:36.586Z,21.07
2023-02-24T14:50:05.021Z,18.30
2023-02-24T14:52:33.912Z,17.77
2023-02-24T14:55:02.801Z,18.97
2023-02-24T14:57:31.683Z,19.10
2023-02-24T15:00:00.565Z,18.37
2023-02-24T15:02:29.551Z,19.50
2023-02-24T15:04:57.498Z,18.30
2023-02-24T15:07:26.379Z,21.60
2023-02-24T15:09:54.715Z,19.80
2023-02-24T15:12:29.529Z,20.73
2023-02-24T15:14:58.439Z,21.60
2023-02-24T15:17:25.952Z,17.10
2023-02-24T15:19:56.410Z,18.53
2023-02-24T15:22:25.438Z,18.80
2023-02-24T15:24:55.508Z,21.77
2023-02-24T15:27:24.412Z,20.23
2023-02-24T15:30:00.595Z,18.83
2023-02-24T15:32:28.890Z,18.77
2023-02-24T15:34:56.442Z,19.33
2023-02-24T15:37:24.960Z,20.67
2023-02-24T15:39:53.850Z,18.17
2023-02-24T15:42:27.162Z,18.73
2023-02-24T15:44:56.069Z,15.50
2023-02-24T15:47:24.636Z,16.63
2023-02-24T15:49:51.975Z,19.93
2023-02-24T15:52:29.359Z,18.23
2023-02-24T15:54:58.531Z,16.73
2023-02-24T15:57:26.435Z,16.67
2023-02-24T15:59:53.957Z,18.00
2023-02-24T16:02:22.267Z,19.80
2023-02-24T16:04:49.993Z,21.20
2023-02-24T16:07:19.221Z,16.83
2023-02-24T16:09:46.936Z,17.03
2023-02-24T16:12:15.913Z,19.20
2023-02-24T16:14:44.028Z,16.57
2023-02-24T16:17:28.877Z,20.90
2023-02-24T16:19:56.831Z,15.27
2023-02-24T16:22:24.749Z,23.50
2023-02-24T16:24:52.151Z,20.70
2023-02-24T16:27:20.961Z,19.63
2023-02-24T16:29:49.560Z,19.20
2023-02-24T16:32:17.117Z,18.47
2023-02-24T16:34:44.603Z,26.70
2023-02-24T16:37:19.053Z,17.60
2023-02-24T16:39:46.860Z,17.63
2023-02-24T16:42:14.213Z,18.40
2023-02-24T16:44:42.064Z,19.17
2023-02-24T16:47:10.937Z,16.60
2023-02-24T16:49:38.461Z,18.47
2023-02-24T16:52:08.779Z,17.00
2023-02-24T16:54:36.108Z,15.30
2023-02-24T16:57:09.547Z,19.00
2023-02-24T16:59:38.583Z,17.27
2023-02-24T17:02:05.936Z,15.80
2023-02-24T17:04:33.441Z,15.63
2023-02-24T17:07:07.370Z,14.13
2023-02-24T17:09:34.737Z,15.10
2023-02-24T17:12:04.068Z,17.50
2023-02-24T17:14:31.423Z,14.90
2023-02-24T17:17:01.927Z,16.43
2023-02-24T17:19:29.222Z,17.53
2023-02-24T17:21:56.565Z,12.57
2023-02-24T17:24:25.347Z,16.67
2023-02-24T17:26:52.700Z,16.43
2023-02-24T17:29:20.040Z,15.00
2023-02-24T17:31:47.568Z,13.30
2023-02-24T17:34:15.187Z,16.20
2023-02-24T17:36:42.653Z,13.50
2023-02-24T17:39:10.016Z,16.20
2023-02-24T17:41:37.332Z,17.73
2023-02-24T17:44:04.676Z,11.73
2023-02-24T17:46:32.284Z,15.37
2023-02-24T17:49:00.099Z,16.17
2023-02-24T17:51:28.013Z,14.87
2023-02-24T17:53:55.644Z,15.87
2023-02-24T17:56:23.380Z,12.67
2023-02-24T17:58:50.842Z,17.10
2023-02-24T18:01:18.199Z,13.90
2023-02-24T18:03:45.548Z,14.37
2023-02-24T18:06:13.091Z,13.30
2023-02-24T18:08:41.027Z,14.03
2023-02-24T18:11:09.750Z,11.13
2023-02-24T18:13:37.167Z,14.80
2023-02-24T18:16:06.110Z,12.85
2023-02-24T18:18:33.495Z,15.47
2023-02-24T18:21:02.156Z,13.10
2023-02-24T18:23:29.768Z,14.60
2023-02-24T18:25:57.121Z,16.10
2023-02-24T18:28:24.455Z,15.90
2023-02-24T18:30:51.963Z,14.73
2023-02-24T18:33:19.581Z,15.20
2023-02-24T18:35:47.072Z,15.67
2023-02-24T18:38:14.465Z,16.73
2023-02-24T18:40:41.813Z,14.40
2023-02-24T18:43:10.752Z,15.77
2023-02-24T18:45:38.101Z,13.07
2023-02-24T18:48:11.084Z,19.50
2023-02-24T18:50:38.630Z,21.30
2023-02-24T18:53:05.976Z,15.33
2023-02-24T18:55:35.560Z,16.27
2023-02-24T19:00:35.657Z,16.60
2023-02-24T19:03:09.336Z,16.13
2023-02-24T19:05:38.715Z,18.40
2023-02-24T19:08:05.882Z,16.90
2023-02-24T19:10:33.221Z,21.90
2023-02-24T19:13:00.587Z,18.63
2023-02-24T19:15:27.966Z,20.53
2023-02-24T19:17:55.473Z,21.70
2023-02-24T19:20:22.988Z,17.60
2023-02-24T19:22:51.705Z,18.97
2023-02-24T19:25:19.200Z,16.47
2023-02-24T19:27:48.184Z,17.53
2023-02-24T19:30:15.796Z,23.87
2023-02-24T19:32:43.313Z,21.80
2023-02-24T19:35:10.647Z,23.50
2023-02-24T19:37:38.171Z,19.93
2023-02-24T19:40:05.809Z,22.03
2023-02-24T19:42:33.147Z,21.50
2023-02-24T19:45:00.511Z,18.97
2023-02-24T19:47:27.843Z,18.80
2023-02-24T19:49:55.204Z,20.07
2023-02-24T19:52:22.549Z,19.43
2023-02-24T19:54:49.980Z,24.53
2023-02-24T19:57:17.314Z,19.43
2023-02-24T19:59:44.854Z,20.40
2023-02-24T20:02:12.200Z,18.40
2023-02-24T20:04:39.578Z,26.07
2023-02-24T20:07:06.900Z,21.17
2023-02-24T20:09:34.258Z,19.87
2023-02-24T20:12:02.075Z,19.50
2023-02-24T20:14:29.911Z,18.83
2023-02-24T20:16:57.461Z,20.23
2023-02-24T20:19:24.925Z,20.73
2023-02-24T20:21:52.285Z,20.43
2023-02-24T20:24:20.151Z,21.67
2023-02-24T20:26:49.400Z,24.00
2023-02-24T20:29:17.904Z,20.63
2023-02-24T20:31:46.183Z,22.97
2023-02-24T20:34:15.644Z,23.67
2023-02-24T20:36:43.635Z,24.70
2023-02-24T20:39:12.853Z,20.30
2023-02-24T20:41:40.667Z,22.63
2023-02-24T20:44:08.414Z,20.57
2023-02-24T20:46:35.899Z,25.17
2023-02-24T20:49:05.865Z,20.40
2023-02-24T20:51:34.170Z,25.37
2023-02-24T20:54:07.468Z,23.90
2023-02-24T20:56:36.135Z,23.10
2023-02-24T20:59:07.917Z,23.20
2023-02-24T21:01:35.482Z,21.97
2023-02-24T21:06:36.941Z,29.43
2023-02-24T21:09:06.008Z,26.37
2023-02-24T21:11:33.374Z,23.10
2023-02-24T21:14:00.749Z,26.33
2023-02-24T21:16:28.380Z,22.83
2023-02-24T21:18:58.061Z,24.00
2023-02-24T21:21:25.517Z,23.07
2023-02-24T21:23:52.852Z,22.83
2023-02-24T21:26:20.637Z,28.80
2023-02-24T21:28:48.203Z,24.50
2023-02-24T21:31:17.399Z,23.90
2023-02-24T21:33:44.825Z,19.17
2023-02-24T21:36:13.465Z,21.13
2023-02-24T21:38:41.257Z,18.33
2023-02-24T21:41:12.358Z,17.17
2023-02-24T21:43:39.746Z,18.63
2023-02-24T21:46:08.920Z,15.23
2023-02-24T21:48:37.025Z,18.23
2023-02-24T21:51:10.037Z,19.27
2023-02-24T21:53:39.008Z,17.60
2023-02-24T21:56:09.200Z,18.03
2023-02-24T21:58:36.608Z,14.50
2023-02-24T22:01:10.421Z,17.70
2023-02-24T22:03:37.936Z,16.67
2023-02-24T22:06:09.218Z,17.77
2023-02-24T22:08:37.640Z,17.63
2023-02-24T22:13:38.389Z,15.90
2023-02-24T22:16:06.923Z,17.43
2023-02-24T22:18:34.409Z,15.83
2023-02-24T22:23:36.546Z,18.10
2023-02-24T22:26:05.158Z,18.73
2023-02-24T22:28:34.121Z,16.00
2023-02-24T22:31:02.417Z,17.87
2023-02-24T22:33:30.631Z,15.50
2023-02-24T22:35:59.526Z,14.97
2023-02-24T22:38:26.876Z,13.63
2023-02-24T22:40:59.007Z,14.57
2023-02-24T22:43:26.788Z,15.53
2023-02-24T22:46:01.013Z,15.30
2023-02-24T22:48:29.328Z,19.40
2023-02-24T22:50:57.553Z,18.03
2023-02-24T22:53:25.505Z,14.80
2023-02-24T22:55:53.044Z,18.80
2023-02-24T22:58:21.296Z,17.23
2023-02-24T23:00:49.609Z,15.37
2023-02-24T23:03:19.474Z,11.80
2023-02-24T23:05:57.216Z,15.50
2023-02-24T23:08:24.548Z,15.63
2023-02-24T23:10:52.179Z,11.83
2023-02-24T23:13:20.881Z,10.70
2023-02-24T23:15:48.994Z,11.17
2023-02-24T23:18:16.509Z,10.20
2023-02-24T23:20:44.845Z,16.70
2023-02-24T23:23:12.165Z,11.13
2023-02-24T23:25:39.527Z,10.57
2023-02-24T23:28:06.862Z,10.13
2023-02-24T23:30:35.463Z,10.13
2023-02-24T23:33:02.963Z,18.37
2023-02-24T23:35:30.329Z,14.67
2023-02-24T23:37:57.679Z,14.90
2023-02-24T23:40:25.953Z,23.77
2023-02-24T23:42:54.188Z,19.33
2023-02-24T23:45:21.539Z,15.07
2023-02-24T23:47:49.071Z,18.40
2023-02-24T23:50:16.496Z,16.77
2023-02-24T23:52:44.015Z,27.83
2023-02-24T23:55:12.018Z,17.30
2023-02-24T23:57:39.458Z,23.30
